createdAt,value
2019-04-14T00:01:54.509Z,2.10
2019-04-14T00:04:28.951Z,1.90
2019-04-14T00:06:59.030Z,1.90
2019-04-14T00:09:27.837Z,1.90
2019-04-14T00:11:56.922Z,1.80
2019-04-14T00:14:27.112Z,1.80
2019-04-14T00:16:56.058Z,1.80
2019-04-14T00:19:26.144Z,1.80
2019-04-14T00:21:54.924Z,1.70
2019-04-14T00:24:24.834Z,1.70
2019-04-14T00:26:53.585Z,1.80
2019-04-14T00:29:22.400Z,1.80
2019-04-14T00:31:53.450Z,1.70
2019-04-14T00:34:22.902Z,1.70
2019-04-14T00:36:59.207Z,1.70
2019-04-14T00:39:42.229Z,1.70
2019-04-14T00:42:14.814Z,1.70
2019-04-14T00:44:45.322Z,1.60
2019-04-14T00:47:15.826Z,1.60
2019-04-14T00:49:44.587Z,1.60
2019-04-14T00:52:14.472Z,1.60
2019-04-14T00:54:43.503Z,1.60
2019-04-14T00:57:12.193Z,1.60
2019-04-14T00:59:41.876Z,1.60
2019-04-14T01:02:10.771Z,1.60
2019-04-14T01:04:40.484Z,1.60
2019-04-14T01:07:09.429Z,1.60
2019-04-14T01:09:39.071Z,1.70
2019-04-14T01:12:08.256Z,1.70
2019-04-14T01:14:36.914Z,1.70
2019-04-14T01:17:06.846Z,1.70
2019-04-14T01:19:35.525Z,1.60
2019-04-14T01:22:05.229Z,1.60
2019-04-14T01:24:34.149Z,1.50
2019-04-14T01:27:03.829Z,1.50
2019-04-14T01:29:34.042Z,1.50
2019-04-14T01:32:03.026Z,1.50
2019-04-14T01:34:32.563Z,1.60
2019-04-14T01:37:01.392Z,1.60
2019-04-14T01:39:30.758Z,1.60
2019-04-14T01:42:00.622Z,1.60
2019-04-14T01:44:30.601Z,1.70
2019-04-14T01:46:59.346Z,1.70
2019-04-14T01:49:29.042Z,1.80
2019-04-14T01:51:59.549Z,1.80
2019-04-14T01:54:32.448Z,1.90
2019-04-14T01:57:08.888Z,1.90
2019-04-14T01:59:37.595Z,1.90
2019-04-14T02:02:07.830Z,1.90
2019-04-14T02:04:36.382Z,1.90
2019-04-14T02:07:05.898Z,1.90
2019-04-14T02:09:35.659Z,1.90
2019-04-14T02:12:06.167Z,1.90
2019-04-14T02:14:36.454Z,1.90
2019-04-14T02:17:07.404Z,1.90
2019-04-14T02:19:37.062Z,1.80
2019-04-14T02:22:07.225Z,1.80
2019-04-14T02:24:37.374Z,1.80
2019-04-14T02:27:07.634Z,1.80
2019-04-14T02:29:36.618Z,1.80
2019-04-14T02:32:33.953Z,1.80
2019-04-14T02:35:02.989Z,1.80
2019-04-14T02:37:33.787Z,1.70
2019-04-14T02:40:05.365Z,1.70
2019-04-14T02:45:10.441Z,1.80
2019-04-14T02:52:35.431Z,1.80
2019-04-14T02:57:44.875Z,1.80
2019-04-14T03:05:01.866Z,1.60
2019-04-14T03:07:40.133Z,1.60
2019-04-14T03:10:03.277Z,1.50
2019-04-14T03:18:00.124Z,1.40
2019-04-14T03:23:14.282Z,1.30
2019-04-14T03:25:29.377Z,1.30
2019-04-14T03:28:28.397Z,1.20
2019-04-14T03:34:06.618Z,1.20
2019-04-14T03:37:37.874Z,1.10
2019-04-14T03:38:50.484Z,1.10
2019-04-14T03:46:23.491Z,1.20
2019-04-14T03:48:52.302Z,1.20
2019-04-14T03:53:42.763Z,1.20
2019-04-14T03:55:55.414Z,1.30
2019-04-14T03:58:20.539Z,1.30
2019-04-14T04:00:49.666Z,1.30
2019-04-14T04:03:19.518Z,1.50
2019-04-14T04:05:48.525Z,1.50
2019-04-14T04:08:18.046Z,1.60
2019-04-14T04:13:34.749Z,1.70
2019-04-14T04:16:13.974Z,1.80
2019-04-14T04:18:50.865Z,1.80
2019-04-14T04:21:20.692Z,2.00
2019-04-14T04:24:08.488Z,2.00
2019-04-14T04:26:42.870Z,2.10
2019-04-14T04:29:13.614Z,2.10
2019-04-14T04:31:44.031Z,2.20
2019-04-14T04:34:23.365Z,2.30
2019-04-14T04:37:02.513Z,2.40
2019-04-14T04:39:36.995Z,2.50
2019-04-14T04:42:06.894Z,2.60
2019-04-14T04:44:35.877Z,2.70
2019-04-14T04:47:05.673Z,2.70
2019-04-14T04:49:34.644Z,2.70
2019-04-14T04:52:04.095Z,2.70
2019-04-14T04:54:32.880Z,2.70
2019-04-14T04:57:02.483Z,2.70
2019-04-14T04:59:32.103Z,2.70
2019-04-14T05:02:00.801Z,2.80
2019-04-14T05:04:29.453Z,2.80
2019-04-14T05:07:03.366Z,2.70
2019-04-14T05:09:39.117Z,2.70
2019-04-14T05:12:26.747Z,2.80
2019-04-14T05:15:03.563Z,2.80
2019-04-14T05:17:36.960Z,2.90
2019-04-14T05:20:07.373Z,3.00
2019-04-14T05:22:35.963Z,3.10
2019-04-14T05:25:05.951Z,3.20
2019-04-14T05:27:34.549Z,3.20
2019-04-14T05:30:04.745Z,3.40
2019-04-14T05:32:34.657Z,3.50
2019-04-14T05:35:05.210Z,3.60
2019-04-14T05:37:33.995Z,3.80
2019-04-14T05:40:03.691Z,4.00
2019-04-14T05:42:32.582Z,4.10
2019-04-14T05:45:02.325Z,4.30
2019-04-14T05:47:32.514Z,4.50
2019-04-14T05:50:01.392Z,4.70
2019-04-14T05:52:30.026Z,4.80
2019-04-14T05:54:58.663Z,4.90
2019-04-14T05:57:30.614Z,5.00
2019-04-14T05:59:59.658Z,5.20
2019-04-14T06:02:30.453Z,5.30
2019-04-14T06:04:59.335Z,5.40
2019-04-14T06:07:28.030Z,5.50
2019-04-14T06:09:56.646Z,5.50
2019-04-14T06:12:26.423Z,5.60
2019-04-14T06:14:55.055Z,5.70
2019-04-14T06:17:23.690Z,5.90
2019-04-14T06:19:52.506Z,6.00
2019-04-14T06:22:21.138Z,6.10
2019-04-14T06:24:49.876Z,6.20
2019-04-14T06:27:18.570Z,6.40
2019-04-14T06:29:48.778Z,6.40
2019-04-14T06:32:21.619Z,6.40
2019-04-14T06:34:59.919Z,6.40
2019-04-14T06:37:33.048Z,6.50
2019-04-14T06:40:03.448Z,6.50
2019-04-14T06:42:32.184Z,6.50
2019-04-14T06:45:00.855Z,6.60
2019-04-14T06:47:29.452Z,6.60
2019-04-14T06:49:58.216Z,6.60
2019-04-14T06:52:27.170Z,6.80
2019-04-14T06:54:55.738Z,7.00
2019-04-14T06:57:24.533Z,7.00
2019-04-14T06:59:53.190Z,7.20
2019-04-14T07:02:36.757Z,7.40
2019-04-14T07:05:07.086Z,7.50
2019-04-14T07:07:35.763Z,7.50
2019-04-14T07:10:06.110Z,7.70
2019-04-14T07:12:34.661Z,7.70
2019-04-14T07:15:03.783Z,7.80
2019-04-14T07:17:32.445Z,7.90
2019-04-14T07:20:02.187Z,8.00
2019-04-14T07:22:31.222Z,8.30
2019-04-14T07:25:00.053Z,8.50
2019-04-14T07:27:29.570Z,8.70
2019-04-14T07:30:02.403Z,8.70
2019-04-14T07:32:31.851Z,8.80
2019-04-14T07:35:04.823Z,8.90
2019-04-14T07:37:44.010Z,9.10
2019-04-14T07:40:29.816Z,9.20
2019-04-14T07:43:08.970Z,9.40
2019-04-14T07:45:39.295Z,9.60
2019-04-14T07:48:12.551Z,9.70
2019-04-14T07:50:59.027Z,9.80
2019-04-14T07:53:31.686Z,9.90
2019-04-14T07:56:02.078Z,10.10
2019-04-14T07:58:32.374Z,10.00
2019-04-14T08:01:14.718Z,9.90
2019-04-14T08:03:48.050Z,9.70
2019-04-14T08:06:16.614Z,9.40
2019-04-14T08:09:01.101Z,9.00
2019-04-14T08:11:29.682Z,8.80
2019-04-14T08:13:58.336Z,8.50
2019-04-14T08:16:30.002Z,8.30
2019-04-14T08:19:01.783Z,8.20
2019-04-14T08:21:30.371Z,8.20
2019-04-14T08:23:58.982Z,8.20
2019-04-14T08:26:27.669Z,8.30
2019-04-14T08:28:56.282Z,8.30
2019-04-14T08:31:24.983Z,8.50
2019-04-14T08:33:53.542Z,8.80
2019-04-14T08:36:22.170Z,9.10
2019-04-14T08:38:50.762Z,9.00
2019-04-14T08:41:19.338Z,8.90
2019-04-14T08:43:49.590Z,8.90
2019-04-14T08:46:36.350Z,9.10
2019-04-14T08:49:09.621Z,9.00
2019-04-14T08:51:39.857Z,9.00
2019-04-14T08:54:10.258Z,8.90
2019-04-14T08:56:43.344Z,8.90
2019-04-14T08:59:13.912Z,8.80
2019-04-14T09:01:46.649Z,8.80
2019-04-14T09:04:18.854Z,8.70
2019-04-14T09:06:49.122Z,8.80
2019-04-14T09:09:25.421Z,9.40
2019-04-14T09:11:55.826Z,10.90
2019-04-14T09:14:24.967Z,12.60
2019-04-14T09:16:53.529Z,14.40
2019-04-14T09:19:22.198Z,15.70
2019-04-14T09:21:52.636Z,16.30
2019-04-14T09:24:24.281Z,17.20
2019-04-14T09:26:53.269Z,17.80
2019-04-14T09:29:21.945Z,18.60
2019-04-14T09:31:50.740Z,19.30
2019-04-14T09:34:19.336Z,20.00
2019-04-14T09:36:48.136Z,20.70
2019-04-14T09:39:16.732Z,21.40
2019-04-14T09:41:45.370Z,22.60
2019-04-14T09:44:14.051Z,22.80
2019-04-14T09:46:42.731Z,22.80
2019-04-14T09:49:11.383Z,23.10
2019-04-14T09:51:40.016Z,23.90
2019-04-14T09:54:10.084Z,25.40
2019-04-14T09:56:40.034Z,25.50
2019-04-14T09:59:08.596Z,25.20
2019-04-14T10:01:37.152Z,25.70
2019-04-14T10:04:05.810Z,26.50
2019-04-14T10:06:34.391Z,26.80
2019-04-14T10:09:03.725Z,26.40
2019-04-14T10:11:32.293Z,26.80
2019-04-14T10:14:00.942Z,26.90
2019-04-14T10:16:29.558Z,27.40
2019-04-14T10:18:58.154Z,27.30
2019-04-14T10:21:26.824Z,27.40
2019-04-14T10:23:55.512Z,27.20
2019-04-14T10:26:24.150Z,26.70
2019-04-14T10:28:52.728Z,27.10
2019-04-14T10:31:21.326Z,27.40
2019-04-14T10:33:49.956Z,27.20
2019-04-14T10:36:18.651Z,28.10
2019-04-14T10:38:47.212Z,26.50
2019-04-14T10:41:15.886Z,24.90
2019-04-14T10:43:44.517Z,25.10
2019-04-14T10:46:13.074Z,24.40
2019-04-14T10:48:41.753Z,24.60
2019-04-14T10:51:10.396Z,21.60
2019-04-14T10:53:38.974Z,22.70
2019-04-14T10:56:07.641Z,23.00
2019-04-14T10:58:36.242Z,23.30
2019-04-14T11:01:05.255Z,23.70
2019-04-14T11:03:33.989Z,24.60
2019-04-14T11:06:20.803Z,23.40
2019-04-14T11:08:49.366Z,23.70
2019-04-14T11:11:18.208Z,23.00
2019-04-14T11:13:46.833Z,22.30
2019-04-14T11:16:15.639Z,21.80
2019-04-14T11:18:44.170Z,21.30
2019-04-14T11:21:12.971Z,20.40
2019-04-14T11:23:41.631Z,22.10
2019-04-14T11:26:10.320Z,22.70
2019-04-14T11:28:38.906Z,21.90
2019-04-14T11:31:07.653Z,22.70
2019-04-14T11:33:54.195Z,22.40
2019-04-14T11:36:27.151Z,21.10
2019-04-14T11:38:57.391Z,22.10
2019-04-14T11:41:26.040Z,22.40
2019-04-14T11:43:54.600Z,20.60
2019-04-14T11:46:23.234Z,21.50
2019-04-14T11:48:51.865Z,22.40
2019-04-14T11:51:20.779Z,22.90
2019-04-14T11:53:49.391Z,23.30
2019-04-14T11:56:18.088Z,23.00
2019-04-14T11:58:46.706Z,24.20
2019-04-14T12:01:19.788Z,23.30
2019-04-14T12:04:05.066Z,22.70
2019-04-14T12:06:51.400Z,22.60
2019-04-14T12:09:21.606Z,23.40
2019-04-14T12:11:50.302Z,24.40
2019-04-14T12:14:19.152Z,23.00
2019-04-14T12:16:47.851Z,24.80
2019-04-14T12:19:16.506Z,24.20
2019-04-14T12:21:45.114Z,24.10
2019-04-14T12:24:13.988Z,23.90
2019-04-14T12:26:42.609Z,23.70
2019-04-14T12:29:11.822Z,22.60
2019-04-14T12:32:00.210Z,23.90
2019-04-14T12:34:28.810Z,23.00
2019-04-14T12:36:57.507Z,24.50
2019-04-14T12:39:26.122Z,26.10
2019-04-14T12:41:59.331Z,26.50
2019-04-14T12:44:38.519Z,25.80
2019-04-14T12:47:11.740Z,24.30
2019-04-14T12:49:41.934Z,25.20
2019-04-14T12:52:21.331Z,25.50
2019-04-14T12:54:48.165Z,26.40
2019-04-14T12:57:18.463Z,26.50
2019-04-14T12:59:47.140Z,25.70
2019-04-14T13:02:23.410Z,26.00
2019-04-14T13:04:52.118Z,26.70
2019-04-14T13:07:20.910Z,26.10
2019-04-14T13:09:49.598Z,23.90
2019-04-14T13:12:18.319Z,23.70
2019-04-14T13:14:47.047Z,25.60
2019-04-14T13:17:15.681Z,23.70
2019-04-14T13:19:44.259Z,22.00
2019-04-14T13:22:12.896Z,23.20
2019-04-14T13:24:41.462Z,23.90
2019-04-14T13:27:10.096Z,24.30
2019-04-14T13:29:38.661Z,24.60
2019-04-14T13:32:07.794Z,23.30
2019-04-14T13:34:36.566Z,24.90
2019-04-14T13:37:06.951Z,25.10
2019-04-14T13:39:35.561Z,25.90
2019-04-14T13:42:04.280Z,25.40
2019-04-14T13:44:33.029Z,25.90
2019-04-14T13:47:01.584Z,26.10
2019-04-14T13:49:30.349Z,26.10
2019-04-14T13:51:59.013Z,25.80
2019-04-14T13:54:27.773Z,25.20
2019-04-14T13:56:56.514Z,25.70
2019-04-14T13:59:25.087Z,25.70
2019-04-14T14:01:53.922Z,25.90
2019-04-14T14:04:22.691Z,25.90
2019-04-14T14:06:51.328Z,26.60
2019-04-14T14:09:20.149Z,25.90
2019-04-14T14:11:50.502Z,25.70
2019-04-14T14:14:36.828Z,26.20
2019-04-14T14:17:09.915Z,26.80
2019-04-14T14:19:40.283Z,25.90
2019-04-14T14:22:13.333Z,25.30
2019-04-14T14:24:43.733Z,25.70
2019-04-14T14:27:12.444Z,25.30
2019-04-14T14:29:41.215Z,23.60
2019-04-14T14:32:14.193Z,24.50
2019-04-14T14:34:42.814Z,23.80
2019-04-14T14:37:11.419Z,24.20
2019-04-14T14:39:40.086Z,24.50
2019-04-14T14:42:08.778Z,25.20
2019-04-14T14:44:39.178Z,25.80
2019-04-14T14:47:15.705Z,25.70
2019-04-14T14:50:02.176Z,25.10
2019-04-14T14:52:31.784Z,25.10
2019-04-14T14:55:00.540Z,25.10
2019-04-14T14:57:29.267Z,25.10
2019-04-14T15:00:00.243Z,24.80
2019-04-14T15:02:29.107Z,24.30
2019-04-14T15:04:57.984Z,24.20
2019-04-14T15:07:26.664Z,24.20
2019-04-14T15:09:55.644Z,23.20
2019-04-14T15:12:24.231Z,23.60
2019-04-14T15:14:52.979Z,23.10
2019-04-14T15:17:21.727Z,22.90
2019-04-14T15:19:50.360Z,22.70
2019-04-14T15:22:19.014Z,22.70
2019-04-14T15:24:47.614Z,23.30
2019-04-14T15:27:16.337Z,23.00
2019-04-14T15:29:44.996Z,21.80
2019-04-14T15:32:13.685Z,20.90
2019-04-14T15:34:42.363Z,20.80
2019-04-14T15:37:10.951Z,20.50
2019-04-14T15:39:39.691Z,20.10
2019-04-14T15:42:08.345Z,19.30
2019-04-14T15:44:36.934Z,18.30
2019-04-14T15:47:05.657Z,17.70
2019-04-14T15:49:34.282Z,17.10
2019-04-14T15:52:03.052Z,16.50
2019-04-14T15:54:31.679Z,16.10
2019-04-14T15:57:07.768Z,15.80
2019-04-14T15:59:38.303Z,15.70
2019-04-14T16:02:08.742Z,15.00
2019-04-14T16:04:42.085Z,15.10
2019-04-14T16:07:12.291Z,15.00
2019-04-14T16:09:42.499Z,15.00
2019-04-14T16:12:18.752Z,15.20
2019-04-14T16:14:51.803Z,15.50
2019-04-14T16:17:38.227Z,15.20
2019-04-14T16:20:08.597Z,15.00
2019-04-14T16:22:38.994Z,14.60
2019-04-14T16:25:07.650Z,14.30
2019-04-14T16:27:54.185Z,13.90
2019-04-14T16:30:30.251Z,13.60
2019-04-14T16:33:16.478Z,13.40
2019-04-14T16:35:48.515Z,13.20
2019-04-14T16:38:17.174Z,13.00
2019-04-14T16:40:45.895Z,12.80
2019-04-14T16:43:14.578Z,12.60
2019-04-14T16:45:43.206Z,12.60
2019-04-14T16:48:11.956Z,12.50
2019-04-14T16:50:40.739Z,12.50
2019-04-14T16:53:13.701Z,12.40
2019-04-14T16:56:00.575Z,12.10
2019-04-14T16:58:53.901Z,11.70
2019-04-14T17:01:24.193Z,11.40
2019-04-14T17:03:52.836Z,11.10
2019-04-14T17:06:21.382Z,10.90
2019-04-14T17:08:50.102Z,10.70
2019-04-14T17:11:18.692Z,10.50
2019-04-14T17:13:48.968Z,10.30
2019-04-14T17:16:31.383Z,10.20
2019-04-14T17:19:10.086Z,9.90
2019-04-14T17:21:43.426Z,9.80
2019-04-14T17:24:17.070Z,9.70
2019-04-14T17:26:53.750Z,9.70
2019-04-14T17:29:24.098Z,9.60
2019-04-14T17:32:10.756Z,9.50
2019-04-14T17:34:43.826Z,9.30
2019-04-14T17:37:16.948Z,9.20
2019-04-14T17:39:53.377Z,9.20
2019-04-14T17:42:38.677Z,9.10
2019-04-14T17:45:15.912Z,9.10
2019-04-14T17:47:46.286Z,9.00
2019-04-14T17:50:22.491Z,8.90
2019-04-14T17:53:01.470Z,8.80
2019-04-14T17:55:49.360Z,8.70
2019-04-14T17:58:22.055Z,8.60
2019-04-14T18:00:55.149Z,8.60
2019-04-14T18:03:28.313Z,8.40
2019-04-14T18:05:58.634Z,8.30
2019-04-14T18:08:28.917Z,8.30
2019-04-14T18:11:13.317Z,8.30
2019-04-14T18:13:43.723Z,8.20
2019-04-14T18:16:19.660Z,8.20
2019-04-14T18:18:58.738Z,8.10
2019-04-14T18:21:27.453Z,8.00
2019-04-14T18:23:56.226Z,8.00
2019-04-14T18:26:28.051Z,7.90
2019-04-14T18:29:00.962Z,7.80
2019-04-14T18:31:32.927Z,7.70
2019-04-14T18:34:18.335Z,7.70
2019-04-14T18:36:54.651Z,7.60
2019-04-14T18:39:25.129Z,7.50
2019-04-14T18:41:58.136Z,7.50
2019-04-14T18:44:43.459Z,7.50
2019-04-14T18:47:13.836Z,7.50
2019-04-14T18:49:44.148Z,7.40
2019-04-14T18:52:17.107Z,7.40
2019-04-14T18:54:56.386Z,7.30
2019-04-14T18:57:26.630Z,7.30
2019-04-14T19:00:02.861Z,7.10
2019-04-14T19:02:31.627Z,7.20
2019-04-14T19:05:00.317Z,7.10
2019-04-14T19:07:29.477Z,6.90
2019-04-14T19:09:58.079Z,6.80
2019-04-14T19:12:28.481Z,6.80
2019-04-14T19:14:58.782Z,6.70
2019-04-14T19:17:29.075Z,6.60
2019-04-14T19:20:01.983Z,6.50
2019-04-14T19:22:29.777Z,6.50
2019-04-14T19:25:08.016Z,6.50
2019-04-14T19:27:28.879Z,6.40
2019-04-14T19:29:59.097Z,6.40
2019-04-14T19:32:27.854Z,6.40
2019-04-14T19:34:56.513Z,6.40
2019-04-14T19:37:25.135Z,6.30
2019-04-14T19:39:53.719Z,6.30
2019-04-14T19:42:22.454Z,6.20
2019-04-14T19:44:51.083Z,6.20
2019-04-14T19:47:19.680Z,6.20
2019-04-14T19:49:48.420Z,6.10
2019-04-14T19:52:17.055Z,6.10
2019-04-14T19:54:45.839Z,6.00
2019-04-14T19:57:14.550Z,6.00
2019-04-14T19:59:43.153Z,6.00
2019-04-14T20:02:12.031Z,6.00
2019-04-14T20:04:40.735Z,6.00
2019-04-14T20:07:09.400Z,5.90
2019-04-14T20:09:37.964Z,5.90
2019-04-14T20:12:06.782Z,5.90
2019-04-14T20:14:35.553Z,5.90
2019-04-14T20:17:17.803Z,5.90
2019-04-14T20:20:04.197Z,5.90
2019-04-14T20:22:50.946Z,5.80
2019-04-14T20:25:33.502Z,5.80
2019-04-14T20:28:08.123Z,5.80
2019-04-14T20:30:44.325Z,5.70
2019-04-14T20:33:13.062Z,5.70
2019-04-14T20:35:41.674Z,5.60
2019-04-14T20:38:10.286Z,5.60
2019-04-14T20:40:38.893Z,5.60
2019-04-14T20:43:07.722Z,5.60
2019-04-14T20:45:36.477Z,5.50
2019-04-14T20:48:05.110Z,5.50
2019-04-14T20:50:34.175Z,5.50
2019-04-14T20:53:02.882Z,5.40
2019-04-14T20:55:31.668Z,5.40
2019-04-14T20:58:00.411Z,5.40
2019-04-14T21:00:29.139Z,5.30
2019-04-14T21:03:15.457Z,5.30
2019-04-14T21:05:51.394Z,5.30
2019-04-14T21:08:29.432Z,5.20
2019-04-14T21:11:05.462Z,5.20
2019-04-14T21:13:35.827Z,5.20
2019-04-14T21:16:18.445Z,5.20
2019-04-14T21:18:48.706Z,5.10
2019-04-14T21:21:30.742Z,5.10
2019-04-14T21:24:01.114Z,5.00
2019-04-14T21:26:31.404Z,4.90
2019-04-14T21:29:10.616Z,4.90
2019-04-14T21:31:41.000Z,4.90
2019-04-14T21:34:11.271Z,4.90
2019-04-14T21:36:44.538Z,4.90
2019-04-14T21:39:17.932Z,4.90
2019-04-14T21:41:53.211Z,4.80
2019-04-14T21:44:21.942Z,4.80
2019-04-14T21:46:50.631Z,4.80
2019-04-14T21:49:19.362Z,4.80
2019-04-14T21:51:52.866Z,4.80
2019-04-14T21:54:22.006Z,4.80
2019-04-14T21:57:01.489Z,4.70
2019-04-14T21:59:31.870Z,4.70
2019-04-14T22:02:18.123Z,4.70
2019-04-14T22:04:48.566Z,4.70
2019-04-14T22:07:30.949Z,4.60
2019-04-14T22:10:01.288Z,4.60
2019-04-14T22:12:31.015Z,4.60
2019-04-14T22:14:59.735Z,4.60
2019-04-14T22:17:28.470Z,4.60
2019-04-14T22:19:57.164Z,4.50
2019-04-14T22:22:26.043Z,4.50
2019-04-14T22:24:54.830Z,4.50
2019-04-14T22:27:23.601Z,4.50
2019-04-14T22:29:52.265Z,4.40
2019-04-14T22:32:21.111Z,4.50
2019-04-14T22:34:49.796Z,4.40
2019-04-14T22:37:18.703Z,4.40
2019-04-14T22:39:47.463Z,4.30
2019-04-14T22:42:16.279Z,4.20
2019-04-14T22:44:44.938Z,4.20
2019-04-14T22:47:13.599Z,4.20
2019-04-14T22:49:42.326Z,4.20
2019-04-14T22:52:11.215Z,4.20
2019-04-14T22:54:40.011Z,4.20
2019-04-14T22:57:08.726Z,4.10
2019-04-14T22:59:37.448Z,4.10
2019-04-14T23:02:07.779Z,4.00
2019-04-14T23:04:38.127Z,4.00
2019-04-14T23:07:08.457Z,4.00
2019-04-14T23:09:51.171Z,4.00
2019-04-14T23:12:30.491Z,3.90
2019-04-14T23:15:00.924Z,3.90
2019-04-14T23:17:34.458Z,4.00
2019-04-14T23:20:11.477Z,3.90
2019-04-14T23:22:54.186Z,3.80
2019-04-14T23:25:22.875Z,3.80
2019-04-14T23:27:51.589Z,3.80
2019-04-14T23:30:20.439Z,3.80
2019-04-14T23:32:49.138Z,3.80
2019-04-14T23:35:18.017Z,3.70
2019-04-14T23:37:46.626Z,3.70
2019-04-14T23:40:15.601Z,3.60
2019-04-14T23:42:44.248Z,3.60
2019-04-14T23:45:13.117Z,3.60
2019-04-14T23:47:41.862Z,3.60
2019-04-14T23:50:10.644Z,3.50
2019-04-14T23:52:39.450Z,3.50
2019-04-14T23:55:09.273Z,3.40
2019-04-14T23:57:37.877Z,3.40
